Home > Products > Valid Products > TAF

000
FTUS43 KMKX 201457 AAA
TAFMKE
TAF AMD
KMKE 201457Z 2015/2118 23012KT P6SM VCSH SCT100 BKN250
     FM201800 24012G21KT P6SM VCTS SCT025 BKN050CB
     FM202200 25011KT P6SM SCT040
     FM210600 24006KT P6SM VCSH BKN040 BKN080
     FM210900 28013G20KT P6SM SCT025
     FM211400 30014G23KT P6SM VCSH BKN018=



000
FTUS43 KMKX 201406 AAB
TAFMSN
TAF AMD
KMSN 201406Z 2014/2112 20009KT P6SM VCSH SCT100 BKN250
     FM201500 24010KT P6SM SCT020 BKN250
     FM201700 26011KT P6SM VCTS SCT040CB BKN100
     FM202000 27008KT P6SM SCT050
     FM210400 23005KT P6SM VCTS BKN040CB
     FM210700 28013G20KT P6SM SCT025=



000
FTUS43 KMKX 201406 AAB
TAFMSN
TAF AMD
KMSN 201406Z 2014/2112 20009KT P6SM VCSH SCT100 BKN250
     FM201500 24010KT P6SM SCT020 BKN250
     FM201700 26011KT P6SM VCTS SCT040CB BKN100
     FM202000 27008KT P6SM SCT050
     FM210400 23005KT P6SM VCTS BKN040CB
     FM210700 28013G20KT P6SM SCT025=



000
FTUS43 KMKX 201240 AAA
TAFMSN
TAF AMD
KMSN 201240Z 2013/2112 23008KT P6SM VCSH SCT015 BKN100
      TEMPO 2013/2015 BKN015
     FM201500 24010KT P6SM SCT015 BKN080
     FM201700 26011KT P6SM VCTS SCT040CB BKN100
     FM202000 27008KT P6SM SCT050
     FM210400 23005KT P6SM VCTS BKN040CB
     FM210700 28013G20KT P6SM SCT025=



000
FTUS43 KMKX 201141
TAFMSN
TAF
KMSN 201141Z 2012/2112 23008KT P6SM VCSH SCT025 BKN060
     FM201500 24010KT P6SM SCT015 BKN080
     FM201700 26011KT P6SM VCTS SCT040CB BKN100
     FM202000 27008KT P6SM SCT050
     FM210400 23005KT P6SM VCTS BKN040CB
     FM210700 28013G20KT P6SM SCT025=



000
FTUS43 KMKX 201141
TAFMKE
TAF
KMKE 201141Z 2012/2118 23013KT P6SM VCSH SCT025 BKN080
     FM201400 23012G20KT P6SM VCSH SCT025 OVC060
      TEMPO 2014/2017 5SM SHRA BKN025
     FM201800 24012G21KT P6SM VCTS SCT025 BKN050CB
     FM202200 25011KT P6SM SCT040
     FM210600 24006KT P6SM VCSH BKN040 BKN080
     FM210900 28013G20KT P6SM SCT025
     FM211400 30014G23KT P6SM VCSH BKN018=



000
FTUS43 KMKX 201141
TAFMSN
TAF
KMSN 201141Z 2012/2112 23008KT P6SM VCSH SCT025 BKN060
     FM201500 24010KT P6SM SCT015 BKN080
     FM201700 26011KT P6SM VCTS SCT040CB BKN100
     FM202000 27008KT P6SM SCT050
     FM210400 23005KT P6SM VCTS BKN040CB
     FM210700 28013G20KT P6SM SCT025=



000
FTUS43 KMKX 201141
TAFMKE
TAF
KMKE 201141Z 2012/2118 23013KT P6SM VCSH SCT025 BKN080
     FM201400 23012G20KT P6SM VCSH SCT025 OVC060
      TEMPO 2014/2017 5SM SHRA BKN025
     FM201800 24012G21KT P6SM VCTS SCT025 BKN050CB
     FM202200 25011KT P6SM SCT040
     FM210600 24006KT P6SM VCSH BKN040 BKN080
     FM210900 28013G20KT P6SM SCT025
     FM211400 30014G23KT P6SM VCSH BKN018=



000
FTUS43 KMKX 201004 AAB
TAFMKE
TAF AMD
KMKE 201004Z 2010/2112 20013G20KT P6SM VCTS SCT025 BKN050CB
      WS020/23045KT
      TEMPO 2010/2012 5SM -SHRA BKN025
     FM201200 22011KT P6SM VCTS SCT025CB BKN050
     FM201400 23012G20KT P6SM VCTS SCT025 OVC060CB
      TEMPO 2014/2018 5SM SHRA BKN025
     FM201800 24012G21KT P6SM VCTS BKN030CB
     FM202100 25010G18KT P6SM SCT040
     FM202300 27006KT P6SM SCT090
     FM210900 28013G20KT P6SM VCSH BKN035=



000
FTUS43 KMKX 201004 AAB
TAFMKE
TAF AMD
KMKE 201004Z 2010/2112 20013G20KT P6SM VCTS SCT025 BKN050CB
      WS020/23045KT
      TEMPO 2010/2012 5SM -SHRA BKN025
     FM201200 22011KT P6SM VCTS SCT025CB BKN050
     FM201400 23012G20KT P6SM VCTS SCT025 OVC060CB
      TEMPO 2014/2018 5SM SHRA BKN025
     FM201800 24012G21KT P6SM VCTS BKN030CB
     FM202100 25010G18KT P6SM SCT040
     FM202300 27006KT P6SM SCT090
     FM210900 28013G20KT P6SM VCSH BKN035=



000
FTUS43 KMKX 200905 AAA
TAFMKE
TAF AMD
KMKE 200905Z 2009/2112 20013G20KT P6SM SCT100 OVC200 WS020/23045KT
     FM201200 22011KT P6SM VCTS BKN025CB BKN060
     FM201400 23012G20KT P6SM VCTS BKN015 OVC070CB
     FM201800 24012G21KT P6SM VCTS BKN030CB
     FM202100 25010G18KT P6SM SCT040
     FM202300 27006KT P6SM SCT090
     FM210900 28013G20KT P6SM VCSH BKN035=



000
FTUS43 KMKX 200905 AAA
TAFMKE
TAF AMD
KMKE 200905Z 2009/2112 20013G20KT P6SM SCT100 OVC200 WS020/23045KT
     FM201200 22011KT P6SM VCTS BKN025CB BKN060
     FM201400 23012G20KT P6SM VCTS BKN015 OVC070CB
     FM201800 24012G21KT P6SM VCTS BKN030CB
     FM202100 25010G18KT P6SM SCT040
     FM202300 27006KT P6SM SCT090
     FM210900 28013G20KT P6SM VCSH BKN035=



000
FTUS43 KMKX 200853 AAA
TAFMSN
TAF AMD
KMSN 200853Z 2009/2106 23012KT P6SM VCTS SCT025 BKN040CB
      WS020/24045KT
      TEMPO 2009/2011 5SM -TSRA BR BKN025CB
     FM201100 21010G20KT P6SM VCSH SCT025 BKN050
     FM201500 24010G19KT P6SM BKN015
     FM201700 26011G19KT P6SM SCT100
     FM202300 27005KT P6SM SCT100=



000
FTUS43 KMKX 200520
TAFMKE
TAF
KMKE 200520Z 2006/2112 20011KT P6SM SCT250 WS020/23045KT
     FM201200 22011KT P6SM VCTS BKN025CB
     FM201400 23012G20KT P6SM VCTS BKN015 OVC070CB
     FM201800 24012G21KT P6SM VCTS BKN030CB
     FM202100 25010G18KT P6SM SCT040
     FM202300 27006KT P6SM SCT090
     FM210900 28013G20KT P6SM VCSH BKN035=



000
FTUS43 KMKX 200520
TAFMSN
TAF
KMSN 200520Z 2006/2106 20012G20KT P6SM FEW070 SCT250 WS020/22045KT
     FM200800 20012KT P6SM VCTS SCT015 BKN040CB WS020/24045KT
     FM201100 21010G20KT P6SM VCSH BKN015
     FM201500 24010G19KT P6SM BKN015
     FM201700 26011G19KT P6SM SCT100
     FM202300 27005KT P6SM SCT100=



000
FTUS43 KMKX 200520
TAFMSN
TAF
KMSN 200520Z 2006/2106 20012G20KT P6SM FEW070 SCT250 WS020/22045KT
     FM200800 20012KT P6SM VCTS SCT015 BKN040CB WS020/24045KT
     FM201100 21010G20KT P6SM VCSH BKN015
     FM201500 24010G19KT P6SM BKN015
     FM201700 26011G19KT P6SM SCT100
     FM202300 27005KT P6SM SCT100=



000
FTUS43 KMKX 200520
TAFMKE
TAF
KMKE 200520Z 2006/2112 20011KT P6SM SCT250 WS020/23045KT
     FM201200 22011KT P6SM VCTS BKN025CB
     FM201400 23012G20KT P6SM VCTS BKN015 OVC070CB
     FM201800 24012G21KT P6SM VCTS BKN030CB
     FM202100 25010G18KT P6SM SCT040
     FM202300 27006KT P6SM SCT090
     FM210900 28013G20KT P6SM VCSH BKN035=



000
FTUS43 KMKX 200328 AAA
TAFMKE
TAF AMD
KMKE 200328Z 2003/2106 20011KT P6SM SCT130 WS020/21045KT
     FM201000 21012KT P6SM BKN040 WS020/23045KT
     FM201300 23012G24KT P6SM VCTS BKN015 OVC070CB
     FM201800 24012G21KT P6SM VCTS BKN030CB
     FM202100 25010G18KT P6SM SCT040
     FM202300 27006KT P6SM SCT090=



000
FTUS43 KMKX 200328 AAA
TAFMKE
TAF AMD
KMKE 200328Z 2003/2106 20011KT P6SM SCT130 WS020/21045KT
     FM201000 21012KT P6SM BKN040 WS020/23045KT
     FM201300 23012G24KT P6SM VCTS BKN015 OVC070CB
     FM201800 24012G21KT P6SM VCTS BKN030CB
     FM202100 25010G18KT P6SM SCT040
     FM202300 27006KT P6SM SCT090=



000
FTUS43 KMKX 192342
TAFMKE
TAF
KMKE 192342Z 2000/2106 18012KT P6SM SCT250
     FM200300 21011KT P6SM SCT130 WS020/20045KT
     FM200900 21012KT P6SM BKN050 WS020/23045KT
     FM201300 23012G24KT P6SM VCTS BKN015 OVC070CB
     FM201800 24012G21KT P6SM VCTS BKN030CB
     FM202100 25010G18KT P6SM SCT040
     FM202300 27006KT P6SM SCT090=



000
FTUS43 KMKX 192342
TAFMSN
TAF
KMSN 192342Z 2000/2024 19012G20KT P6SM FEW045 SCT200 WS020/20045KT
     FM200800 20012KT P6SM VCTS SCT015 BKN040CB WS020/24045KT
     FM201100 21010G20KT P6SM VCSH BKN015
     FM201500 24010G19KT P6SM BKN015
     FM201700 26011G19KT P6SM BKN100=



000
FTUS43 KMKX 192342
TAFMSN
TAF
KMSN 192342Z 2000/2024 19012G20KT P6SM FEW045 SCT200 WS020/20045KT
     FM200800 20012KT P6SM VCTS SCT015 BKN040CB WS020/24045KT
     FM201100 21010G20KT P6SM VCSH BKN015
     FM201500 24010G19KT P6SM BKN015
     FM201700 26011G19KT P6SM BKN100=



000
FTUS43 KMKX 192342
TAFMKE
TAF
KMKE 192342Z 2000/2106 18012KT P6SM SCT250
     FM200300 21011KT P6SM SCT130 WS020/20045KT
     FM200900 21012KT P6SM BKN050 WS020/23045KT
     FM201300 23012G24KT P6SM VCTS BKN015 OVC070CB
     FM201800 24012G21KT P6SM VCTS BKN030CB
     FM202100 25010G18KT P6SM SCT040
     FM202300 27006KT P6SM SCT090=



000
FTUS43 KMKX 192204 AAB
TAFMKE
TAF AMD
KMKE 192204Z 1922/2024 18013KT P6SM SCT250
     FM200500 21011KT P6SM SCT130 WS020/21045KT
     FM200700 21012KT P6SM BKN050 WS020/23045KT
     FM201500 23012G24KT P6SM VCTS BKN015 OVC070CB
     FM201800 24012G21KT P6SM SHRA BKN015
     FM201900 25012G21KT P6SM SHRA BKN040
     FM202300 26010G17KT P6SM SHRA SCT090=



000
FTUS43 KMKX 192204 AAB
TAFMKE
TAF AMD
KMKE 192204Z 1922/2024 18013KT P6SM SCT250
     FM200500 21011KT P6SM SCT130 WS020/21045KT
     FM200700 21012KT P6SM BKN050 WS020/23045KT
     FM201500 23012G24KT P6SM VCTS BKN015 OVC070CB
     FM201800 24012G21KT P6SM SHRA BKN015
     FM201900 25012G21KT P6SM SHRA BKN040
     FM202300 26010G17KT P6SM SHRA SCT090=



000
FTUS43 KMKX 192019 AAA
TAFMKE
TAF AMD
KMKE 192019Z 1920/2024 18013G22KT P6SM SCT250
     FM200500 21011KT P6SM SCT130 WS020/21045KT
     FM200700 21012KT P6SM BKN050 WS020/23045KT
     FM201500 23012G24KT P6SM VCTS BKN015 OVC070CB
     FM201800 24012G21KT P6SM SHRA BKN015
     FM201900 25012G21KT P6SM SHRA BKN040
     FM202300 26010G17KT P6SM SHRA SCT090=



000
FTUS43 KMKX 192019 AAA
TAFMKE
TAF AMD
KMKE 192019Z 1920/2024 18013G22KT P6SM SCT250
     FM200500 21011KT P6SM SCT130 WS020/21045KT
     FM200700 21012KT P6SM BKN050 WS020/23045KT
     FM201500 23012G24KT P6SM VCTS BKN015 OVC070CB
     FM201800 24012G21KT P6SM SHRA BKN015
     FM201900 25012G21KT P6SM SHRA BKN040
     FM202300 26010G17KT P6SM SHRA SCT090=



000
FTUS43 KMKX 192019 AAA
TAFMSN
TAF AMD
KMSN 192019Z 1920/2018 19012G22KT P6SM SCT150
     FM200600 20012KT P6SM BKN040 WS020/22045KT
     FM200900 21010G21KT P6SM VCSH BKN030
     FM201100 21010G20KT P6SM VCSH BKN015
     FM201500 24010G19KT P6SM BKN015
     FM201700 25011G19KT P6SM BKN100=



000
FTUS43 KMKX 192019 AAA
TAFMSN
TAF AMD
KMSN 192019Z 1920/2018 19012G22KT P6SM SCT150
     FM200600 20012KT P6SM BKN040 WS020/22045KT
     FM200900 21010G21KT P6SM VCSH BKN030
     FM201100 21010G20KT P6SM VCSH BKN015
     FM201500 24010G19KT P6SM BKN015
     FM201700 25011G19KT P6SM BKN100=



000
FTUS43 KMKX 191720
TAFMKE
TAF
KMKE 191720Z 1918/2024 18013G20KT P6SM FEW250
     FM200500 21011KT P6SM SCT130 WS020/21045KT
     FM200700 21012KT P6SM BKN050 WS020/23045KT
     FM201500 23012G24KT P6SM VCTS BKN015 OVC070CB
     FM201800 24012G21KT P6SM SHRA BKN015
     FM201900 25012G21KT P6SM SHRA BKN040
     FM202300 26010G17KT P6SM SHRA SCT090=



000
FTUS43 KMKX 191720
TAFMKE
TAF
KMKE 191720Z 1918/2024 18013G20KT P6SM FEW250
     FM200500 21011KT P6SM SCT130 WS020/21045KT
     FM200700 21012KT P6SM BKN050 WS020/23045KT
     FM201500 23012G24KT P6SM VCTS BKN015 OVC070CB
     FM201800 24012G21KT P6SM SHRA BKN015
     FM201900 25012G21KT P6SM SHRA BKN040
     FM202300 26010G17KT P6SM SHRA SCT090=



000
FTUS43 KMKX 191720
TAFMSN
TAF
KMSN 191720Z 1918/2018 19012G22KT P6SM SCT120
     FM200600 20012KT P6SM BKN040 WS020/22045KT
     FM200900 21010G21KT P6SM VCSH BKN030
     FM201100 21010G20KT P6SM VCSH BKN015
     FM201500 24010G19KT P6SM BKN015
     FM201700 25011G19KT P6SM BKN100=



000
FTUS43 KMKX 191343 AAB
TAFMSN
TAF AMD
KMSN 191343Z 1914/2012 17007KT 5SM BR SCT008 BKN250
     FM191500 17011KT P6SM SCT250
     FM191700 17012G21KT P6SM SCT030
     FM200300 21012G20KT P6SM BKN150 WS020/22045KT=



000
FTUS43 KMKX 191343 AAB
TAFMSN
TAF AMD
KMSN 191343Z 1914/2012 17007KT 5SM BR SCT008 BKN250
     FM191500 17011KT P6SM SCT250
     FM191700 17012G21KT P6SM SCT030
     FM200300 21012G20KT P6SM BKN150 WS020/22045KT=



000
FTUS43 KMKX 191207 AAA
TAFMKE
TAF AMD
KMKE 191207Z 1912/2018 17007KT P6SM SCT250
     FM191500 17011KT P6SM SCT250
     FM191800 18015G23KT P6SM SCT040
     FM200300 19013KT P6SM BKN150 WS020/22045KT
     FM201300 22014KT P6SM VCTS SCT030 BKN060CB=



000
FTUS43 KMKX 191207 AAA
TAFMKE
TAF AMD
KMKE 191207Z 1912/2018 17007KT P6SM SCT250
     FM191500 17011KT P6SM SCT250
     FM191800 18015G23KT P6SM SCT040
     FM200300 19013KT P6SM BKN150 WS020/22045KT
     FM201300 22014KT P6SM VCTS SCT030 BKN060CB=



000
FTUS43 KMKX 191207 AAA
TAFMSN
TAF AMD
KMSN 191207Z 1912/2012 17008KT 4SM BR OVC006
     FM191500 17008KT 6SM BR SCT005
     FM191600 17011KT P6SM SCT250
     FM191700 17012G21KT P6SM SCT030
     FM200300 21012G20KT P6SM BKN150 WS020/22045KT=



000
FTUS43 KMKX 191207 AAA
TAFMSN
TAF AMD
KMSN 191207Z 1912/2012 17008KT 4SM BR OVC006
     FM191500 17008KT 6SM BR SCT005
     FM191600 17011KT P6SM SCT250
     FM191700 17012G21KT P6SM SCT030
     FM200300 21012G20KT P6SM BKN150 WS020/22045KT=



000
FTUS43 KMKX 191120
TAFMKE
TAF
KMKE 191120Z 1912/2018 16007KT 5SM BR SKC
     FM191400 17010KT P6SM SCT250
     FM191800 18015G23KT P6SM SCT040
     FM200300 19013KT P6SM BKN150 WS020/22045KT
     FM201300 22014KT P6SM VCTS SCT030 BKN060CB=



000
FTUS43 KMKX 191120
TAFMKE
TAF
KMKE 191120Z 1912/2018 16007KT 5SM BR SKC
     FM191400 17010KT P6SM SCT250
     FM191800 18015G23KT P6SM SCT040
     FM200300 19013KT P6SM BKN150 WS020/22045KT
     FM201300 22014KT P6SM VCTS SCT030 BKN060CB=



000
FTUS43 KMKX 191120
TAFMSN
TAF
KMSN 191120Z 1912/2012 16008KT 5SM BR OVC005
     FM191500 17008KT 6SM BR SCT005
     FM191600 17011KT P6SM SCT250
     FM191700 17012G21KT P6SM SCT030
     FM200300 21012G20KT P6SM BKN150 WS020/22045KT=



000
FTUS43 KMKX 191120
TAFMSN
TAF
KMSN 191120Z 1912/2012 16008KT 5SM BR OVC005
     FM191500 17008KT 6SM BR SCT005
     FM191600 17011KT P6SM SCT250
     FM191700 17012G21KT P6SM SCT030
     FM200300 21012G20KT P6SM BKN150 WS020/22045KT=



000
FTUS43 KMKX 190803 AAB
TAFMSN
TAF AMD
KMSN 190803Z 1908/2006 15006KT 3SM BR OVC003
     FM191300 17007KT 4SM BR SCT005
     FM191400 17010KT P6SM FEW010
     FM191700 17012G21KT P6SM SCT030
     FM200300 21012G20KT P6SM BKN080=



000
FTUS43 KMKX 190803 AAB
TAFMSN
TAF AMD
KMSN 190803Z 1908/2006 15006KT 3SM BR OVC003
     FM191300 17007KT 4SM BR SCT005
     FM191400 17010KT P6SM FEW010
     FM191700 17012G21KT P6SM SCT030
     FM200300 21012G20KT P6SM BKN080=



000
FTUS43 KMKX 190707 AAA
TAFMKE
TAF AMD
KMKE 190707Z 1907/2012 13005KT 6SM BR BKN010
      TEMPO 1908/1911 3SM BR SCT010
     FM191100 14007KT 5SM BR SCT010
     FM191300 16007KT P6SM FEW008
     FM191500 17011KT P6SM SCT020
     FM191800 18015G22KT P6SM SCT040
     FM200400 19014KT P6SM BKN080
     FM201000 21014KT P6SM BKN060=



000
FTUS43 KMKX 190707 AAA
TAFMKE
TAF AMD
KMKE 190707Z 1907/2012 13005KT 6SM BR BKN010
      TEMPO 1908/1911 3SM BR SCT010
     FM191100 14007KT 5SM BR SCT010
     FM191300 16007KT P6SM FEW008
     FM191500 17011KT P6SM SCT020
     FM191800 18015G22KT P6SM SCT040
     FM200400 19014KT P6SM BKN080
     FM201000 21014KT P6SM BKN060=



000
FTUS43 KMKX 190655 AAA
TAFMSN
TAF AMD
KMSN 190655Z 1907/2006 14007KT 1SM BR OVC002
     FM190900 16007KT 1SM BR BKN005
     FM191300 17007KT 4SM BR SCT005
     FM191400 17010KT P6SM FEW010
     FM191700 17012G21KT P6SM SCT030
     FM200300 21012G20KT P6SM BKN080=



000
FTUS43 KMKX 190655 AAA
TAFMSN
TAF AMD
KMSN 190655Z 1907/2006 14007KT 1SM BR OVC002
     FM190900 16007KT 1SM BR BKN005
     FM191300 17007KT 4SM BR SCT005
     FM191400 17010KT P6SM FEW010
     FM191700 17012G21KT P6SM SCT030
     FM200300 21012G20KT P6SM BKN080=



000
FTUS43 KMKX 190522
TAFMKE
TAF
KMKE 190522Z 1906/2012 VRB03KT 5SM BR SCT006
      TEMPO 1906/1907 BKN006
     FM190800 13005KT 3SM BR SCT003
      TEMPO 1908/1911 1SM BR
     FM191300 16007KT P6SM FEW008
     FM191500 17011KT P6SM SCT020
     FM191800 18015G22KT P6SM SCT040
     FM200400 19014KT P6SM BKN080
     FM201000 21014KT P6SM BKN060=



000
FTUS43 KMKX 190522
TAFMSN
TAF
KMSN 190522Z 1906/2006 13004KT 5SM BR BKN003
      TEMPO 1906/1908 2SM BR
     FM190800 16003KT 1SM BR BKN005
     FM191300 17007KT 4SM BR SCT005
     FM191400 17010KT P6SM FEW010
     FM191700 17012G21KT P6SM SCT030
     FM200300 21012G20KT P6SM BKN080=



000
FTUS43 KMKX 190522
TAFMKE
TAF
KMKE 190522Z 1906/2012 VRB03KT 5SM BR SCT006
      TEMPO 1906/1907 BKN006
     FM190800 13005KT 3SM BR SCT003
      TEMPO 1908/1911 1SM BR
     FM191300 16007KT P6SM FEW008
     FM191500 17011KT P6SM SCT020
     FM191800 18015G22KT P6SM SCT040
     FM200400 19014KT P6SM BKN080
     FM201000 21014KT P6SM BKN060=



000
FTUS43 KMKX 190522
TAFMSN
TAF
KMSN 190522Z 1906/2006 13004KT 5SM BR BKN003
      TEMPO 1906/1908 2SM BR
     FM190800 16003KT 1SM BR BKN005
     FM191300 17007KT 4SM BR SCT005
     FM191400 17010KT P6SM FEW010
     FM191700 17012G21KT P6SM SCT030
     FM200300 21012G20KT P6SM BKN080=



000
FTUS43 KMKX 190250 AAA
TAFMKE
TAF AMD
KMKE 190250Z 1903/2006 06004KT P6SM BKN010
     FM190400 07005KT P6SM SCT015
     FM190600 11005KT 4SM BR SCT005
     FM190800 13005KT 3SM BR SCT003
      TEMPO 1908/1911 1SM BR
     FM191300 16007KT P6SM FEW008
     FM191500 17010KT P6SM SCT020
     FM191800 18015G22KT P6SM SCT040
     FM200400 19012KT P6SM BKN080=



000
FTUS43 KMKX 190250 AAA
TAFMKE
TAF AMD
KMKE 190250Z 1903/2006 06004KT P6SM BKN010
     FM190400 07005KT P6SM SCT015
     FM190600 11005KT 4SM BR SCT005
     FM190800 13005KT 3SM BR SCT003
      TEMPO 1908/1911 1SM BR
     FM191300 16007KT P6SM FEW008
     FM191500 17010KT P6SM SCT020
     FM191800 18015G22KT P6SM SCT040
     FM200400 19012KT P6SM BKN080=



000
FTUS43 KMKX 182339
TAFMSN
TAF
KMSN 182339Z 1900/1924 10004KT P6SM SCT025
     FM190500 11004KT 3SM BR SCT003
      TEMPO 1905/1908 1/2SM FG BKN003
     FM190800 16003KT 3/4SM BR BKN003
     FM191300 17007KT 4SM BR SCT005
     FM191400 17010KT P6SM FEW015
     FM191700 17012G21KT P6SM SCT030=



000
FTUS43 KMKX 182339
TAFMKE
TAF
KMKE 182339Z 1900/2006 06005KT P6SM OVC015
     FM190400 05006KT P6SM SCT015
     FM190600 11005KT 4SM BR SCT005
     FM190800 13005KT 3SM BR SCT003
      TEMPO 1908/1911 1SM BR
     FM191300 16007KT P6SM FEW008
     FM191500 17010KT P6SM SCT020
     FM191800 18015G22KT P6SM SCT040
     FM200400 19012KT P6SM BKN080=



000
FTUS43 KMKX 182339
TAFMSN
TAF
KMSN 182339Z 1900/1924 10004KT P6SM SCT025
     FM190500 11004KT 3SM BR SCT003
      TEMPO 1905/1908 1/2SM FG BKN003
     FM190800 16003KT 3/4SM BR BKN003
     FM191300 17007KT 4SM BR SCT005
     FM191400 17010KT P6SM FEW015
     FM191700 17012G21KT P6SM SCT030=



000
FTUS43 KMKX 182339
TAFMKE
TAF
KMKE 182339Z 1900/2006 06005KT P6SM OVC015
     FM190400 05006KT P6SM SCT015
     FM190600 11005KT 4SM BR SCT005
     FM190800 13005KT 3SM BR SCT003
      TEMPO 1908/1911 1SM BR
     FM191300 16007KT P6SM FEW008
     FM191500 17010KT P6SM SCT020
     FM191800 18015G22KT P6SM SCT040
     FM200400 19012KT P6SM BKN080=



000
FTUS43 KMKX 182212 AAB
TAFMKE
TAF AMD
KMKE 182212Z 1822/1924 05008KT P6SM BKN015
     FM190300 05006KT P6SM SCT018
     FM190500 11005KT P6SM SKC
     FM191400 17010KT P6SM SKC
     FM191800 18015G22KT P6SM SCT250=



000
FTUS43 KMKX 182212 AAB
TAFMKE
TAF AMD
KMKE 182212Z 1822/1924 05008KT P6SM BKN015
     FM190300 05006KT P6SM SCT018
     FM190500 11005KT P6SM SKC
     FM191400 17010KT P6SM SKC
     FM191800 18015G22KT P6SM SCT250=



000
FTUS43 KMKX 182103 AAC
TAFMSN
TAF AMD
KMSN 182103Z 1821/1918 08006KT P6SM FEW015
     FM191000 16003KT 3SM BR SKC
     FM191400 17010KT P6SM SKC=



000
FTUS43 KMKX 182103 AAC
TAFMSN
TAF AMD
KMSN 182103Z 1821/1918 08006KT P6SM FEW015
     FM191000 16003KT 3SM BR SKC
     FM191400 17010KT P6SM SKC=



000
FTUS43 KMKX 182003 AAA
TAFMKE
TAF AMD
KMKE 182003Z 1820/1924 02009KT P6SM BKN015
     FM182300 05006KT P6SM SCT018
     FM190500 11005KT P6SM SKC
     FM191400 17010KT P6SM SKC
     FM191800 18015G22KT P6SM SCT250=



000
FTUS43 KMKX 182003 AAA
TAFMKE
TAF AMD
KMKE 182003Z 1820/1924 02009KT P6SM BKN015
     FM182300 05006KT P6SM SCT018
     FM190500 11005KT P6SM SKC
     FM191400 17010KT P6SM SKC
     FM191800 18015G22KT P6SM SCT250=



000
FTUS43 KMKX 181856 AAB
TAFMSN
TAF AMD
KMSN 181856Z 1819/1918 09007KT P6SM FEW015
     FM191000 16003KT 3SM BR SKC
     FM191400 17010KT P6SM SKC=



000
FTUS43 KMKX 181856 AAB
TAFMSN
TAF AMD
KMSN 181856Z 1819/1918 09007KT P6SM FEW015
     FM191000 16003KT 3SM BR SKC
     FM191400 17010KT P6SM SKC=



000
FTUS43 KMKX 181801 AAA
TAFMSN
TAF AMD
KMSN 181801Z 1818/1918 12005KT P6SM OVC008
     FM181900 12007KT P6SM BKN010
     FM182000 14007KT P6SM SCT015
     FM191000 16003KT 3SM BR SKC
     FM191400 17010KT P6SM SKC=



000
FTUS43 KMKX 181801 AAA
TAFMSN
TAF AMD
KMSN 181801Z 1818/1918 12005KT P6SM OVC008
     FM181900 12007KT P6SM BKN010
     FM182000 14007KT P6SM SCT015
     FM191000 16003KT 3SM BR SKC
     FM191400 17010KT P6SM SKC=



000
FTUS43 KMKX 181731
TAFMKE
TAF
KMKE 181731Z 1818/1924 02011KT P6SM OVC014
     FM181900 05009KT P6SM BKN015
     FM182300 08006KT P6SM SCT018
     FM190500 11005KT P6SM SKC
     FM191400 17010KT P6SM SKC
     FM191800 18015G22KT P6SM SCT250=



000
FTUS43 KMKX 181731
TAFMSN
TAF
KMSN 181731Z 1818/1918 10007KT P6SM OVC007
     FM181900 10007KT P6SM BKN012
     FM190100 11003KT P6SM SCT015
     FM191000 16003KT 3SM BR SKC
     FM191400 17010KT P6SM SKC=



000
FTUS43 KMKX 181731
TAFMSN
TAF
KMSN 181731Z 1818/1918 10007KT P6SM OVC007
     FM181900 10007KT P6SM BKN012
     FM190100 11003KT P6SM SCT015
     FM191000 16003KT 3SM BR SKC
     FM191400 17010KT P6SM SKC=



000
FTUS43 KMKX 181731
TAFMKE
TAF
KMKE 181731Z 1818/1924 02011KT P6SM OVC014
     FM181900 05009KT P6SM BKN015
     FM182300 08006KT P6SM SCT018
     FM190500 11005KT P6SM SKC
     FM191400 17010KT P6SM SKC
     FM191800 18015G22KT P6SM SCT250=



000
FTUS43 KMKX 181510 AAB
TAFMKE
TAF AMD
KMKE 181510Z 1815/1918 01009KT P6SM OVC013
     FM181900 05008KT P6SM BKN015
     FM182300 08006KT P6SM SCT018
     FM190500 11005KT P6SM SKC
     FM191400 17010KT P6SM SKC=



000
FTUS43 KMKX 181510 AAB
TAFMKE
TAF AMD
KMKE 181510Z 1815/1918 01009KT P6SM OVC013
     FM181900 05008KT P6SM BKN015
     FM182300 08006KT P6SM SCT018
     FM190500 11005KT P6SM SKC
     FM191400 17010KT P6SM SKC=



000
FTUS43 KMKX 181415 AAA
TAFMSN
TAF AMD
KMSN 181415Z 1814/1912 05007KT 4SM BR OVC004
     FM181600 07007KT P6SM OVC008
     FM181800 08007KT P6SM OVC012
     FM182200 07007KT P6SM SCT015
     FM190100 11003KT P6SM SKC
     FM191000 16003KT 5SM BR SKC=



000
FTUS43 KMKX 181415 AAA
TAFMSN
TAF AMD
KMSN 181415Z 1814/1912 05007KT 4SM BR OVC004
     FM181600 07007KT P6SM OVC008
     FM181800 08007KT P6SM OVC012
     FM182200 07007KT P6SM SCT015
     FM190100 11003KT P6SM SKC
     FM191000 16003KT 5SM BR SKC=



000
FTUS43 KMKX 181228 AAA
TAFMKE
TAF AMD
KMKE 181228Z 1812/1918 01009KT P6SM SCT008 OVC010
     FM181900 05008KT P6SM BKN015
     FM182300 08006KT P6SM SCT018
     FM190500 11005KT P6SM SKC
     FM191400 17010KT P6SM SKC=



000
FTUS43 KMKX 181228 AAA
TAFMKE
TAF AMD
KMKE 181228Z 1812/1918 01009KT P6SM SCT008 OVC010
     FM181900 05008KT P6SM BKN015
     FM182300 08006KT P6SM SCT018
     FM190500 11005KT P6SM SKC
     FM191400 17010KT P6SM SKC=



000
FTUS43 KMKX 181120
TAFMSN
TAF
KMSN 181120Z 1812/1912 06007KT 1 1/2SM BR OVC002
     FM181400 07007KT P6SM OVC004
     FM181600 07007KT P6SM OVC008
     FM181800 08007KT P6SM OVC012
     FM182200 07007KT P6SM SCT015
     FM190100 11003KT P6SM SKC
     FM191000 16003KT 5SM BR SKC=



000
FTUS43 KMKX 181120
TAFMKE
TAF
KMKE 181120Z 1812/1918 01009KT P6SM OVC008
     FM181500 02008KT P6SM OVC011
     FM181900 05008KT P6SM BKN015
     FM182300 08006KT P6SM SCT018
     FM190500 11005KT P6SM SKC
     FM191400 17010KT P6SM SKC=



000
FTUS43 KMKX 181120
TAFMKE
TAF
KMKE 181120Z 1812/1918 01009KT P6SM OVC008
     FM181500 02008KT P6SM OVC011
     FM181900 05008KT P6SM BKN015
     FM182300 08006KT P6SM SCT018
     FM190500 11005KT P6SM SKC
     FM191400 17010KT P6SM SKC=



000
FTUS43 KMKX 181120
TAFMSN
TAF
KMSN 181120Z 1812/1912 06007KT 1 1/2SM BR OVC002
     FM181400 07007KT P6SM OVC004
     FM181600 07007KT P6SM OVC008
     FM181800 08007KT P6SM OVC012
     FM182200 07007KT P6SM SCT015
     FM190100 11003KT P6SM SKC
     FM191000 16003KT 5SM BR SKC=



000
FTUS43 KMKX 181001 AAC
TAFMSN
TAF AMD
KMSN 181001Z 1810/1906 04009KT 1 1/2SM BR BKN002
     FM181200 04008KT 5SM BR BKN004
     FM181300 05007KT P6SM BKN005
     FM181400 08007KT P6SM BKN008
     FM181800 07007KT P6SM BKN015
     FM182100 07007KT P6SM SCT018
     FM190100 09003KT P6SM SKC=



000
FTUS43 KMKX 181001 AAC
TAFMSN
TAF AMD
KMSN 181001Z 1810/1906 04009KT 1 1/2SM BR BKN002
     FM181200 04008KT 5SM BR BKN004
     FM181300 05007KT P6SM BKN005
     FM181400 08007KT P6SM BKN008
     FM181800 07007KT P6SM BKN015
     FM182100 07007KT P6SM SCT018
     FM190100 09003KT P6SM SKC=



000
FTUS43 KMKX 180905 AAB
TAFMSN
TAF AMD
KMSN 180905Z 1809/1906 04006KT 1 1/2SM BR BKN003
     FM181000 04006KT 5SM BR BKN003
     FM181100 05007KT P6SM BKN005
     FM181300 08007KT P6SM BKN008
     FM181800 07007KT P6SM BKN015
     FM182100 07007KT P6SM SCT018
     FM190100 09003KT P6SM SKC=



000
FTUS43 KMKX 180905 AAB
TAFMSN
TAF AMD
KMSN 180905Z 1809/1906 04006KT 1 1/2SM BR BKN003
     FM181000 04006KT 5SM BR BKN003
     FM181100 05007KT P6SM BKN005
     FM181300 08007KT P6SM BKN008
     FM181800 07007KT P6SM BKN015
     FM182100 07007KT P6SM SCT018
     FM190100 09003KT P6SM SKC=



000
FTUS43 KMKX 180857 AAB
TAFMKE
TAF AMD
KMKE 180857Z 1809/1912 36008KT P6SM OVC007
     FM181300 04008KT P6SM BKN008
     FM181800 08008KT P6SM BKN015
     FM182200 08007KT P6SM SCT018
     FM190500 12005KT P6SM SKC=



000
FTUS43 KMKX 180857 AAB
TAFMKE
TAF AMD
KMKE 180857Z 1809/1912 36008KT P6SM OVC007
     FM181300 04008KT P6SM BKN008
     FM181800 08008KT P6SM BKN015
     FM182200 08007KT P6SM SCT018
     FM190500 12005KT P6SM SKC=



000
FTUS43 KMKX 180755 AAA
TAFMKE
TAF AMD
KMKE 180755Z 1808/1912 01011KT P6SM BKN008
      TEMPO 1808/1809 SCT008 BKN018
     FM181300 05010KT P6SM BKN008
     FM181800 08008KT P6SM BKN015
     FM182200 08007KT P6SM SCT018
     FM190500 12005KT P6SM SKC=



000
FTUS43 KMKX 180755 AAA
TAFMKE
TAF AMD
KMKE 180755Z 1808/1912 01011KT P6SM BKN008
      TEMPO 1808/1809 SCT008 BKN018
     FM181300 05010KT P6SM BKN008
     FM181800 08008KT P6SM BKN015
     FM182200 08007KT P6SM SCT018
     FM190500 12005KT P6SM SKC=



000
FTUS43 KMKX 180728 AAA
TAFMSN
TAF AMD
KMSN 180728Z 1807/1906 VRB03KT 4SM BR SKC
     FM180900 03007G14KT 5SM BR BKN005
     FM181100 07007KT P6SM BKN005
     FM181300 08007KT P6SM BKN008
     FM181800 07007KT P6SM BKN015
     FM182100 07007KT P6SM SCT018
     FM190100 09003KT P6SM SKC=



000
FTUS43 KMKX 180728 AAA
TAFMSN
TAF AMD
KMSN 180728Z 1807/1906 VRB03KT 4SM BR SKC
     FM180900 03007G14KT 5SM BR BKN005
     FM181100 07007KT P6SM BKN005
     FM181300 08007KT P6SM BKN008
     FM181800 07007KT P6SM BKN015
     FM182100 07007KT P6SM SCT018
     FM190100 09003KT P6SM SKC=



000
FTUS43 KMKX 180520
TAFMSN
TAF
KMSN 180520Z 1806/1906 VRB03KT 5SM BR SCT050
     FM180700 03005KT P6SM SCT015 SCT050
      TEMPO 1808/1809 03008G15KT BKN050
     FM180930 05007G14KT P6SM SCT005 BKN040
      TEMPO 1810/1811 BKN005
     FM181100 07007KT P6SM BKN005
     FM181300 08007KT P6SM BKN008
     FM181800 07007KT P6SM BKN015
     FM182100 07007KT P6SM SCT018
     FM190100 09003KT P6SM SKC=



000
FTUS43 KMKX 180520
TAFMKE
TAF
KMKE 180520Z 1806/1912 22004KT P6SM SCT050
     FM180645 02010G20KT P6SM SCT015 SCT050
      TEMPO 1807/1809 BKN015 BKN035
     FM180900 02010G18KT P6SM BKN005 OVC012
     FM181300 05010KT P6SM BKN008
     FM181800 08008KT P6SM BKN015
     FM182200 08007KT P6SM SCT018
     FM190500 12005KT P6SM SKC=



000
FTUS43 KMKX 180520
TAFMSN
TAF
KMSN 180520Z 1806/1906 VRB03KT 5SM BR SCT050
     FM180700 03005KT P6SM SCT015 SCT050
      TEMPO 1808/1809 03008G15KT BKN050
     FM180930 05007G14KT P6SM SCT005 BKN040
      TEMPO 1810/1811 BKN005
     FM181100 07007KT P6SM BKN005
     FM181300 08007KT P6SM BKN008
     FM181800 07007KT P6SM BKN015
     FM182100 07007KT P6SM SCT018
     FM190100 09003KT P6SM SKC=



000
FTUS43 KMKX 180520
TAFMKE
TAF
KMKE 180520Z 1806/1912 22004KT P6SM SCT050
     FM180645 02010G20KT P6SM SCT015 SCT050
      TEMPO 1807/1809 BKN015 BKN035
     FM180900 02010G18KT P6SM BKN005 OVC012
     FM181300 05010KT P6SM BKN008
     FM181800 08008KT P6SM BKN015
     FM182200 08007KT P6SM SCT018
     FM190500 12005KT P6SM SKC=



000
FTUS43 KMKX 180244 AAA
TAFMKE
TAF AMD
KMKE 180244Z 1803/1906 22004KT P6SM SCT050
     FM180700 25007KT P6SM SCT005 SCT030
      TEMPO 1807/1809 02010G20KT BKN005 BKN030
     FM180900 02010G18KT P6SM BKN005 OVC012
     FM181300 05010KT P6SM BKN008
     FM181800 08008KT P6SM BKN015
     FM182200 08007KT P6SM SCT018=



000
FTUS43 KMKX 180244 AAA
TAFMKE
TAF AMD
KMKE 180244Z 1803/1906 22004KT P6SM SCT050
     FM180700 25007KT P6SM SCT005 SCT030
      TEMPO 1807/1809 02010G20KT BKN005 BKN030
     FM180900 02010G18KT P6SM BKN005 OVC012
     FM181300 05010KT P6SM BKN008
     FM181800 08008KT P6SM BKN015
     FM182200 08007KT P6SM SCT018=



000
FTUS43 KMKX 172329
TAFMKE
TAF
KMKE 172329Z 1800/1906 15008KT P6SM FEW050
     FM180200 22004KT P6SM SCT050
     FM180700 02010G20KT P6SM BKN005
      TEMPO 1807/1808 SCT005 BKN030
     FM181300 05010KT P6SM BKN008
     FM181800 08008KT P6SM BKN015
     FM182200 08007KT P6SM SCT018=



000
FTUS43 KMKX 172329
TAFMSN
TAF
KMSN 172329Z 1800/1824 24003KT P6SM SCT050
     FM180700 03005KT P6SM SCT005 BKN030
     FM180930 05007G14KT 5SM BR BKN005
     FM181300 08007KT P6SM BKN008
     FM181800 07007KT P6SM BKN015
     FM182200 07007KT P6SM SCT018=



000
FTUS43 KMKX 172329
TAFMSN
TAF
KMSN 172329Z 1800/1824 24003KT P6SM SCT050
     FM180700 03005KT P6SM SCT005 BKN030
     FM180930 05007G14KT 5SM BR BKN005
     FM181300 08007KT P6SM BKN008
     FM181800 07007KT P6SM BKN015
     FM182200 07007KT P6SM SCT018=



000
FTUS43 KMKX 172329
TAFMKE
TAF
KMKE 172329Z 1800/1906 15008KT P6SM FEW050
     FM180200 22004KT P6SM SCT050
     FM180700 02010G20KT P6SM BKN005
      TEMPO 1807/1808 SCT005 BKN030
     FM181300 05010KT P6SM BKN008
     FM181800 08008KT P6SM BKN015
     FM182200 08007KT P6SM SCT018=



000
FTUS43 KMKX 172103 AAA
TAFMSN
TAF AMD
KMSN 172103Z 1721/1818 23005KT P6SM FEW050 SCT090
     FM180400 VRB03KT 4SM BR SCT004
     FM181000 05006KT 6SM BR BKN007
     FM181300 08007KT P6SM BKN010=



000
FTUS43 KMKX 172103 AAA
TAFMSN
TAF AMD
KMSN 172103Z 1721/1818 23005KT P6SM FEW050 SCT090
     FM180400 VRB03KT 4SM BR SCT004
     FM181000 05006KT 6SM BR BKN007
     FM181300 08007KT P6SM BKN010=



000
FTUS43 KMKX 172101 AAA
TAFMKE
TAF AMD
KMKE 172101Z 1721/1824 13010KT P6SM SCT050
     FM180200 22004KT P6SM SKC
     FM180800 02010G18KT P6SM BKN005
     FM181300 05009KT P6SM BKN010
     FM181800 08008KT P6SM BKN035=



000
FTUS43 KMKX 172101 AAA
TAFMKE
TAF AMD
KMKE 172101Z 1721/1824 13010KT P6SM SCT050
     FM180200 22004KT P6SM SKC
     FM180800 02010G18KT P6SM BKN005
     FM181300 05009KT P6SM BKN010
     FM181800 08008KT P6SM BKN035=



000
FTUS43 KMKX 171738
TAFMSN
TAF
KMSN 171738Z 1718/1818 23005KT P6SM FEW050 SCT090
     FM180800 VRB03KT 4SM BR SCT004 SCT030
     FM181000 05006KT 6SM BR BKN004
     FM181300 08007KT P6SM BKN010=



000
FTUS43 KMKX 171738
TAFMKE
TAF
KMKE 171738Z 1718/1824 27005KT P6SM FEW050
     FM172300 15006KT P6SM SCT050
     FM180200 22004KT P6SM SKC
     FM180800 02010G18KT P6SM BKN005
     FM181300 05009KT P6SM BKN010
     FM181800 08008KT P6SM BKN035=



000
FTUS43 KMKX 171738
TAFMKE
TAF
KMKE 171738Z 1718/1824 27005KT P6SM FEW050
     FM172300 15006KT P6SM SCT050
     FM180200 22004KT P6SM SKC
     FM180800 02010G18KT P6SM BKN005
     FM181300 05009KT P6SM BKN010
     FM181800 08008KT P6SM BKN035=



    US Dept of Commerce
    National Oceanic and Atmospheric Administration
    National Weather Service
    1325 East West Highway
    Silver Spring, MD 20910
    Page Author: NWS Internet Services Team
Disclaimer
Information Quality
Credits
Glossary
Privacy Policy
Freedom of Information Act (FOIA)
About Us
Career Opportunities